Time;durP1;ratioP1;P1;durP2;ratioP2;P2;SDS_P1;SDS_P2;PMS_P1;PMS_P2;Temp;Humidity;BMP_temperature;BMP_pressure;BME280_temperature;BME280_humidity;BME280_pressure;Samples;Min_cycle;Max_cycle;Signal;HPM_P1;HPM_P2
2023/09/06 00:00:32;;;;;;;10.43;7.30;;;20.30;99.90;;;;;;5133471;27;20414;-72
2023/09/06 00:02:59;;;;;;;11.60;7.13;;;20.30;99.90;;;;;;5133997;27;20059;-72
2023/09/06 00:05:26;;;;;;;7.87;7.07;;;20.30;99.90;;;;;;5116791;27;20078;-72
2023/09/06 00:07:51;;;;;;;8.73;7.00;;;20.30;99.90;;;;;;5117155;27;20093;-72
2023/09/06 00:10:17;;;;;;;9.93;7.77;;;20.40;99.90;;;;;;5099883;27;20101;-72
2023/09/06 00:12:45;;;;;;;8.87;7.00;;;20.30;99.90;;;;;;5134980;27;20050;-72
2023/09/06 00:15:11;;;;;;;9.20;7.40;;;20.30;99.90;;;;;;5100122;27;20501;-72
2023/09/06 00:17:38;;;;;;;8.30;7.33;;;20.20;99.90;;;;;;5132774;27;20130;-71
2023/09/06 00:20:20;;;;;;;9.53;7.83;;;20.20;99.90;;;;;;5133587;27;20047;-72
2023/09/06 00:23:00;;;;;;;9.10;7.73;;;20.20;99.90;;;;;;5134209;27;20059;-72
2023/09/06 00:25:27;;;;;;;9.70;8.10;;;20.10;99.90;;;;;;5116495;27;20043;-71
2023/09/06 00:27:58;;;;;;;8.10;6.53;;;20.00;99.90;;;;;;5134729;27;20043;-72
2023/09/06 00:30:24;;;;;;;9.03;7.60;;;20.00;99.90;;;;;;5133503;27;20495;-72
2023/09/06 00:32:52;;;;;;;10.63;7.67;;;20.00;99.90;;;;;;5116544;27;20078;-72
2023/09/06 00:35:25;;;;;;;9.67;7.57;;;20.00;99.90;;;;;;5133679;27;20466;-72
2023/09/06 00:37:54;;;;;;;9.40;7.83;;;19.90;99.90;;;;;;5116062;27;20080;-72
2023/09/06 00:40:21;;;;;;;12.30;8.20;;;19.80;99.90;;;;;;5116106;27;20051;-72
2023/09/06 00:43:00;;;;;;;13.30;7.80;;;19.80;99.90;;;;;;5133082;27;20051;-71
2023/09/06 00:45:38;;;;;;;11.17;7.07;;;19.80;99.90;;;;;;5134332;27;20035;-71
2023/09/06 00:48:06;;;;;;;10.77;8.07;;;19.80;99.90;;;;;;5133317;27;20392;-72
2023/09/06 00:50:35;;;;;;;10.07;7.57;;;19.80;99.90;;;;;;5115942;27;20085;-72
2023/09/06 00:53:04;;;;;;;8.70;7.77;;;19.70;99.90;;;;;;5133769;27;20091;-71
2023/09/06 00:55:30;;;;;;;10.90;8.00;;;19.70;99.90;;;;;;5134009;27;20425;-72
2023/09/06 00:57:55;;;;;;;10.83;7.80;;;19.70;99.90;;;;;;5099291;27;20043;-72
2023/09/06 01:00:24;;;;;;;11.07;7.53;;;19.70;99.90;;;;;;5115933;27;20105;-72
2023/09/06 01:02:50;;;;;;;8.97;7.87;;;19.70;99.90;;;;;;5133210;27;20058;-72
2023/09/06 01:05:17;;;;;;;9.47;7.03;;;19.70;99.90;;;;;;5133006;27;20055;-71
2023/09/06 01:07:52;;;;;;;9.87;6.90;;;19.60;99.90;;;;;;5132892;27;20061;-71
2023/09/06 01:10:18;;;;;;;9.73;7.27;;;19.60;99.90;;;;;;5133083;27;20053;-76
2023/09/06 01:12:44;;;;;;;8.80;7.00;;;19.60;99.90;;;;;;5116032;27;20392;-71
2023/09/06 01:15:13;;;;;;;13.90;8.00;;;19.50;99.90;;;;;;5116103;28;20039;-71
2023/09/06 01:17:43;;;;;;;7.90;6.73;;;19.50;99.90;;;;;;5115209;28;20869;-71
2023/09/06 01:20:38;;;;;;;9.87;7.97;;;19.50;99.90;;;;;;5115875;28;20552;-71
2023/09/06 01:23:10;;;;;;;8.10;7.00;;;19.50;99.90;;;;;;5133217;28;20051;-72
2023/09/06 01:25:35;;;;;;;8.00;7.20;;;19.50;99.90;;;;;;5115532;28;20047;-72
2023/09/06 01:28:02;;;;;;;9.43;7.37;;;19.40;99.90;;;;;;5132923;28;20043;-71
2023/09/06 01:30:29;;;;;;;9.07;7.03;;;19.40;99.90;;;;;;5132627;28;20039;-71
2023/09/06 01:32:55;;;;;;;7.93;7.10;;;19.40;99.90;;;;;;5132877;28;20483;-72
2023/09/06 01:35:21;;;;;;;8.97;7.50;;;19.40;99.90;;;;;;5115426;28;20088;-75
2023/09/06 01:37:50;;;;;;;8.57;7.07;;;19.30;99.90;;;;;;5115315;28;20117;-71
2023/09/06 01:40:20;;;;;;;11.33;7.10;;;19.30;99.90;;;;;;5115962;28;20539;-72
2023/09/06 01:42:46;;;;;;;9.90;7.43;;;19.20;99.90;;;;;;5133587;28;20513;-72
2023/09/06 01:45:17;;;;;;;12.37;7.87;;;19.20;99.90;;;;;;5132594;28;20499;-71
2023/09/06 01:47:48;;;;;;;8.20;7.03;;;19.20;99.90;;;;;;5115821;28;20062;-72
2023/09/06 01:50:19;;;;;;;9.53;7.23;;;19.10;99.90;;;;;;5132836;28;20403;-72
2023/09/06 01:52:44;;;;;;;7.87;6.87;;;19.10;99.90;;;;;;5116038;28;20047;-72
2023/09/06 01:55:10;;;;;;;8.33;7.30;;;19.10;99.90;;;;;;5134268;27;20122;-72
2023/09/06 01:57:36;;;;;;;8.87;7.20;;;19.00;99.90;;;;;;5118934;27;20043;-72
2023/09/06 02:00:16;;;;;;;8.10;7.30;;;19.10;99.90;;;;;;5137699;27;20051;-71
2023/09/06 02:02:42;;;;;;;10.60;8.80;;;19.10;99.90;;;;;;5136072;27;20054;-71
2023/09/06 02:05:08;;;;;;;9.10;7.53;;;19.10;99.90;;;;;;5137700;27;20047;-71
2023/09/06 02:07:33;;;;;;;10.20;7.27;;;19.00;99.90;;;;;;5119167;27;20051;-72
2023/09/06 02:09:59;;;;;;;8.20;7.30;;;19.00;99.90;;;;;;5119429;27;20043;-71
2023/09/06 02:12:25;;;;;;;8.13;7.27;;;19.00;99.90;;;;;;5119365;27;20424;-74
2023/09/06 02:14:52;;;;;;;9.37;7.50;;;19.00;99.90;;;;;;5136068;27;20130;-72
2023/09/06 02:17:20;;;;;;;9.40;8.00;;;18.90;99.90;;;;;;5136194;27;20396;-72
2023/09/06 02:19:45;;;;;;;11.27;7.53;;;18.90;99.90;;;;;;5136056;27;20043;-72
2023/09/06 02:22:11;;;;;;;10.40;7.53;;;18.90;99.90;;;;;;5136275;27;20119;-73
2023/09/06 02:24:39;;;;;;;9.10;6.77;;;18.80;99.90;;;;;;5118779;27;20047;-73
2023/09/06 02:27:05;;;;;;;8.97;7.50;;;18.80;99.90;;;;;;5119003;27;20049;-72
2023/09/06 02:29:31;;;;;;;8.67;7.63;;;18.80;99.90;;;;;;5135884;27;20059;-73
2023/09/06 02:31:57;;;;;;;9.10;7.43;;;18.80;99.90;;;;;;5118971;27;20054;-72
2023/09/06 02:34:23;;;;;;;9.80;8.07;;;18.70;99.90;;;;;;5136027;27;20383;-71
2023/09/06 02:36:48;;;;;;;10.23;6.83;;;18.70;99.90;;;;;;5101061;27;20456;-71
2023/09/06 02:39:14;;;;;;;7.90;7.07;;;18.70;99.90;;;;;;5118920;27;20112;-71
2023/09/06 02:41:40;;;;;;;9.70;7.07;;;18.70;99.90;;;;;;5118552;27;20454;-72
2023/09/06 02:44:05;;;;;;;8.87;6.83;;;18.70;99.90;;;;;;5135832;27;20054;-72
2023/09/06 02:46:33;;;;;;;8.70;6.43;;;18.70;99.90;;;;;;5118535;27;20475;-73
2023/09/06 02:49:11;;;;;;;10.97;6.93;;;18.70;99.90;;;;;;5135852;27;20047;-72
2023/09/06 02:51:43;;;;;;;8.77;6.80;;;18.70;99.90;;;;;;5135152;27;20055;-72
2023/09/06 02:54:09;;;;;;;8.80;7.03;;;18.70;99.90;;;;;;5135121;27;20043;-72
2023/09/06 02:56:38;;;;;;;9.63;6.90;;;18.70;99.90;;;;;;5136150;27;20135;-72
2023/09/06 02:59:07;;;;;;;9.30;7.00;;;18.70;99.90;;;;;;5136789;27;20043;-71
2023/09/06 03:01:35;;;;;;;9.90;7.83;;;18.70;99.90;;;;;;5118054;27;20043;-72
2023/09/06 03:04:06;;;;;;;9.40;6.67;;;18.60;99.90;;;;;;5118262;27;20046;-72
2023/09/06 03:06:33;;;;;;;10.17;7.37;;;18.60;99.90;;;;;;5134039;27;20058;-76
2023/09/06 03:09:00;;;;;;;8.57;7.10;;;18.60;99.90;;;;;;5134583;27;20043;-72
2023/09/06 03:11:26;;;;;;;11.67;7.03;;;18.60;99.90;;;;;;5135432;27;20051;-71
2023/09/06 03:13:55;;;;;;;8.57;7.27;;;18.60;99.90;;;;;;5134986;27;20451;-71
2023/09/06 03:16:24;;;;;;;8.60;7.37;;;18.60;99.90;;;;;;5118388;27;20038;-72
2023/09/06 03:18:51;;;;;;;9.03;7.50;;;18.50;99.90;;;;;;5135863;27;20047;-72
2023/09/06 03:21:17;;;;;;;10.70;7.10;;;18.50;99.90;;;;;;5101347;27;20075;-72
2023/09/06 03:23:46;;;;;;;9.47;7.17;;;18.50;99.90;;;;;;5134755;27;20054;-72
2023/09/06 03:26:12;;;;;;;9.53;6.57;;;18.50;99.90;;;;;;5117953;27;20372;-72
2023/09/06 03:28:41;;;;;;;8.03;6.50;;;18.40;99.90;;;;;;5134250;27;20057;-72
2023/09/06 03:31:12;;;;;;;7.27;6.37;;;18.40;99.90;;;;;;5134934;27;20383;-72
2023/09/06 03:33:39;;;;;;;8.60;6.80;;;18.40;99.90;;;;;;5117641;27;20138;-72
2023/09/06 03:36:09;;;;;;;8.80;6.50;;;18.40;99.90;;;;;;5134578;27;20078;-72
2023/09/06 03:38:36;;;;;;;7.87;6.37;;;18.30;99.90;;;;;;5117833;27;20094;-75
2023/09/06 03:41:03;;;;;;;8.67;6.70;;;18.30;99.90;;;;;;5134403;27;20479;-72
2023/09/06 03:43:32;;;;;;;8.23;6.30;;;18.30;99.90;;;;;;5134500;27;20054;-72
2023/09/06 03:45:59;;;;;;;7.70;6.13;;;18.30;99.90;;;;;;5134296;27;20055;-72
2023/09/06 03:48:27;;;;;;;7.73;6.27;;;18.20;99.90;;;;;;5117421;27;20078;-72
2023/09/06 03:50:59;;;;;;;9.20;6.63;;;18.20;99.90;;;;;;5134136;27;20047;-72
2023/09/06 03:53:26;;;;;;;8.67;6.03;;;18.20;99.90;;;;;;5117403;27;20047;-72
2023/09/06 03:55:57;;;;;;;7.10;5.20;;;18.20;99.90;;;;;;5083220;27;20043;-72
2023/09/06 03:58:27;;;;;;;9.10;6.10;;;18.20;99.90;;;;;;5134197;27;20384;-72
2023/09/06 04:00:53;;;;;;;7.60;6.07;;;18.20;99.90;;;;;;5133835;27;20046;-72
2023/09/06 04:03:20;;;;;;;8.50;5.90;;;18.20;99.90;;;;;;5099865;27;20413;-73
2023/09/06 04:05:46;;;;;;;7.90;6.03;;;18.20;99.90;;;;;;5135064;27;20093;-72
2023/09/06 04:08:20;;;;;;;7.60;5.67;;;18.10;99.90;;;;;;5135297;27;20096;-72
2023/09/06 04:10:46;;;;;;;8.27;5.85;;;18.10;99.90;;;;;;5118174;27;20035;-73
2023/09/06 04:13:13;;;;;;;7.50;5.40;;;18.10;99.90;;;;;;5134399;27;20095;-72
2023/09/06 04:15:42;;;;;;;7.80;5.70;;;18.10;99.90;;;;;;5134790;27;20043;-77
2023/09/06 04:18:12;;;;;;;9.37;5.33;;;18.20;99.90;;;;;;5116334;27;20055;-72
2023/09/06 04:20:39;;;;;;;6.87;5.33;;;18.10;99.90;;;;;;5133990;27;20106;-72
2023/09/06 04:23:08;;;;;;;6.87;5.40;;;18.00;99.90;;;;;;5133902;27;20049;-72
2023/09/06 04:25:41;;;;;;;8.23;5.90;;;18.00;99.90;;;;;;5133867;27;20044;-72
2023/09/06 04:28:07;;;;;;;7.70;5.67;;;18.00;99.90;;;;;;5117163;27;20135;-72
2023/09/06 04:30:35;;;;;;;8.57;5.77;;;18.00;99.90;;;;;;5116639;27;20122;-72
2023/09/06 04:33:03;;;;;;;7.07;5.60;;;18.00;99.90;;;;;;5134489;27;20043;-72
2023/09/06 04:35:34;;;;;;;6.43;4.97;;;18.00;99.90;;;;;;5133863;27;20047;-73
2023/09/06 04:38:02;;;;;;;10.57;5.50;;;17.90;99.90;;;;;;5132964;27;20054;-72
2023/09/06 04:40:29;;;;;;;10.03;5.63;;;18.00;99.90;;;;;;5133635;27;20133;-72
2023/09/06 04:42:55;;;;;;;7.97;5.13;;;17.90;99.90;;;;;;5115857;27;20079;-72
2023/09/06 04:45:21;;;;;;;7.47;5.40;;;17.90;99.90;;;;;;5116646;27;20051;-72
2023/09/06 04:47:47;;;;;;;6.70;5.30;;;17.90;99.90;;;;;;5116133;27;20486;-73
2023/09/06 04:50:13;;;;;;;7.73;5.17;;;17.90;99.90;;;;;;5116634;27;20054;-72
2023/09/06 04:52:46;;;;;;;8.03;5.37;;;17.90;99.90;;;;;;5133360;27;20074;-72
2023/09/06 04:55:13;;;;;;;7.33;5.73;;;17.80;99.90;;;;;;5116185;27;20051;-72
2023/09/06 04:57:42;;;;;;;7.37;5.67;;;17.80;99.90;;;;;;5134204;27;20039;-73
2023/09/06 05:00:32;;;;;;;7.67;5.70;;;17.80;99.90;;;;;;5115950;27;20122;-72
2023/09/06 05:02:56;;;;;;;7.90;5.57;;;17.80;99.90;;;;;;5132011;27;20046;-72
2023/09/06 05:05:22;;;;;;;7.83;5.10;;;17.80;99.90;;;;;;5116048;27;20130;-71
2023/09/06 05:07:48;;;;;;;9.53;5.23;;;17.80;99.90;;;;;;5098541;27;20480;-71
2023/09/06 05:10:13;;;;;;;7.53;5.33;;;17.80;99.90;;;;;;5133140;27;20540;-72
2023/09/06 05:12:39;;;;;;;10.10;5.63;;;17.80;99.90;;;;;;5132969;27;20043;-72
2023/09/06 05:15:06;;;;;;;7.60;5.33;;;17.80;99.90;;;;;;5132499;27;20053;-72
2023/09/06 05:17:34;;;;;;;9.07;5.50;;;17.80;99.90;;;;;;5132804;27;20051;-72
2023/09/06 05:20:27;;;;;;;7.00;5.30;;;17.80;99.90;;;;;;5132475;27;20083;-72
2023/09/06 05:22:59;;;;;;;6.60;4.87;;;17.80;99.90;;;;;;5133410;28;20410;-72
2023/09/06 05:25:25;;;;;;;7.57;5.40;;;17.80;99.90;;;;;;5133227;28;20047;-72
2023/09/06 05:27:55;;;;;;;7.80;5.10;;;17.80;99.90;;;;;;5132642;28;20047;-72
2023/09/06 05:30:21;;;;;;;7.37;5.20;;;17.80;99.90;;;;;;5116678;27;20047;-72
2023/09/06 05:32:47;;;;;;;7.87;5.03;;;17.80;99.90;;;;;;5137300;27;20039;-72
2023/09/06 05:35:13;;;;;;;6.17;5.10;;;17.80;99.90;;;;;;5136940;27;20043;-72
2023/09/06 05:37:40;;;;;;;7.60;5.20;;;17.90;99.90;;;;;;5102932;27;20059;-72
2023/09/06 05:40:07;;;;;;;7.40;5.30;;;17.90;99.90;;;;;;5119453;27;20402;-72
2023/09/06 05:42:33;;;;;;;10.37;6.10;;;17.90;99.90;;;;;;5138100;27;20051;-72
2023/09/06 05:44:59;;;;;;;7.10;5.10;;;17.90;99.90;;;;;;5136645;27;20135;-72
2023/09/06 05:47:25;;;;;;;6.53;5.20;;;17.90;99.90;;;;;;5136426;27;20115;-72
2023/09/06 05:49:52;;;;;;;6.43;4.70;;;17.90;99.90;;;;;;5102325;27;20375;-76
2023/09/06 05:52:18;;;;;;;8.23;5.40;;;17.90;99.90;;;;;;5136836;27;20055;-71
2023/09/06 05:54:48;;;;;;;7.57;5.40;;;18.00;99.90;;;;;;5119900;27;20039;-72
2023/09/06 05:57:14;;;;;;;9.93;4.73;;;18.00;99.90;;;;;;5136209;27;20440;-72
2023/09/06 05:59:40;;;;;;;8.27;4.97;;;18.10;99.90;;;;;;5102652;27;20114;-72
2023/09/06 06:02:07;;;;;;;7.90;5.80;;;18.10;99.90;;;;;;5102271;27;20099;-72
2023/09/06 06:04:32;;;;;;;8.47;5.63;;;18.20;99.90;;;;;;5136595;27;20043;-72
2023/09/06 06:06:58;;;;;;;9.63;5.40;;;18.20;99.90;;;;;;5136082;27;20054;-72
2023/09/06 06:09:25;;;;;;;9.13;5.00;;;18.40;99.90;;;;;;5119324;27;20043;-72
2023/09/06 06:11:55;;;;;;;9.20;5.10;;;18.70;99.90;;;;;;5119658;27;20114;-72
2023/09/06 06:14:23;;;;;;;7.53;4.70;;;19.90;99.90;;;;;;5120225;27;20036;-72
2023/09/06 06:16:48;;;;;;;7.23;4.67;;;21.50;99.90;;;;;;5137304;27;20051;-72
2023/09/06 06:19:14;;;;;;;10.27;4.37;;;23.10;99.90;;;;;;5118674;27;20073;-73
2023/09/06 06:21:40;;;;;;;6.70;4.37;;;24.40;99.90;;;;;;5102146;27;20043;-73
2023/09/06 06:24:09;;;;;;;6.50;4.17;;;25.50;99.90;;;;;;5101753;27;20055;-73
2023/09/06 06:26:35;;;;;;;6.57;4.33;;;26.40;99.90;;;;;;5119641;27;20050;-73
2023/09/06 06:29:01;;;;;;;8.10;4.33;;;27.40;99.90;;;;;;5135561;27;20054;-73
2023/09/06 06:31:28;;;;;;;6.60;3.70;;;28.00;99.90;;;;;;5136291;27;20145;-73
2023/09/06 06:33:54;;;;;;;8.03;4.13;;;28.50;99.90;;;;;;5119010;27;20058;-73
2023/09/06 06:36:21;;;;;;;6.33;4.20;;;29.10;99.90;;;;;;5135407;27;20509;-73
2023/09/06 06:38:47;;;;;;;5.57;3.77;;;29.60;99.90;;;;;;5135662;27;20059;-72
2023/09/06 06:41:22;;;;;;;5.67;3.77;;;29.90;96.50;;;;;;5118216;27;20049;-72
2023/09/06 06:43:48;;;;;;;6.57;4.23;;;30.40;78.80;;;;;;5135918;27;20062;-73
2023/09/06 06:46:30;;;;;;;7.22;4.05;;;30.80;86.40;;;;;;5101733;27;20047;-73
2023/09/06 06:48:56;;;;;;;7.32;3.90;;;31.30;61.20;;;;;;5111850;28;20055;-73
2023/09/06 06:51:34;;;;;;;6.38;3.97;;;31.60;75.00;;;;;;5086447;28;20067;-73
2023/09/06 06:54:19;;;;;;;5.75;3.58;;;31.60;67.50;;;;;;5103154;28;20039;-70
2023/09/06 06:56:46;;;;;;;5.57;3.70;;;31.80;62.70;;;;;;5100757;28;20042;-72
2023/09/06 06:59:13;;;;;;;8.13;3.50;;;32.00;63.10;;;;;;5114805;28;20123;-72
2023/09/06 07:01:39;;;;;;;5.60;3.53;;;32.30;60.90;;;;;;5098098;28;20505;-71
2023/09/06 07:04:05;;;;;;;7.20;3.88;;;32.40;58.90;;;;;;5114689;28;20073;-71
2023/09/06 07:06:31;;;;;;;6.88;3.90;;;32.60;57.20;;;;;;5116063;28;20062;-72
2023/09/06 07:09:03;;;;;;;8.65;3.47;;;32.80;55.90;;;;;;5114833;28;20566;-74
2023/09/06 07:11:29;;;;;;;6.80;3.45;;;33.20;55.00;;;;;;5116025;28;20130;-73
2023/09/06 07:13:55;;;;;;;7.22;3.88;;;33.50;54.10;;;;;;5114764;28;20130;-72
2023/09/06 07:16:20;;;;;;;6.25;3.65;;;33.80;52.40;;;;;;5080480;28;20436;-72
2023/09/06 07:18:47;;;;;;;7.35;3.50;;;34.10;51.40;;;;;;5080987;28;20173;-73
2023/09/06 07:21:14;;;;;;;7.03;4.10;;;34.10;50.70;;;;;;5096925;28;20051;-73
2023/09/06 07:23:40;;;;;;;7.35;3.42;;;34.00;49.70;;;;;;5113748;28;20048;-74
2023/09/06 07:26:06;;;;;;;6.45;3.33;;;34.10;50.00;;;;;;5114131;28;20054;-74
2023/09/06 07:28:45;;;;;;;8.23;3.47;;;34.60;49.00;;;;;;5114269;28;20040;-73
2023/09/06 07:31:13;;;;;;;6.55;3.50;;;34.60;48.00;;;;;;5114103;28;20051;-73
2023/09/06 07:33:38;;;;;;;6.05;3.45;;;34.70;48.90;;;;;;5097372;28;20063;-73
2023/09/06 07:36:05;;;;;;;6.00;3.50;;;34.80;48.50;;;;;;5113880;28;20391;-73
2023/09/06 07:38:31;;;;;;;6.35;3.20;;;35.10;48.20;;;;;;5112771;27;20059;-73
2023/09/06 07:40:57;;;;;;;5.38;3.13;;;35.60;47.30;;;;;;5134494;27;20130;-73
2023/09/06 07:43:25;;;;;;;5.22;3.35;;;35.50;46.90;;;;;;5100376;27;20047;-72
2023/09/06 07:45:51;;;;;;;5.72;3.38;;;35.70;46.80;;;;;;5100379;27;20128;-72
2023/09/06 07:48:17;;;;;;;6.15;3.47;;;34.90;46.90;;;;;;5100139;27;20040;-72
2023/09/06 07:50:43;;;;;;;5.68;2.95;;;34.60;47.70;;;;;;5117680;27;20100;-72
2023/09/06 07:53:09;;;;;;;7.43;2.90;;;33.50;48.60;;;;;;5116413;27;20054;-73
2023/09/06 07:55:34;;;;;;;7.32;3.42;;;32.60;49.70;;;;;;5134305;27;20479;-73
2023/09/06 07:58:00;;;;;;;5.95;3.38;;;31.50;51.20;;;;;;5134067;27;20047;-73
2023/09/06 08:00:28;;;;;;;6.10;2.90;;;30.50;52.90;;;;;;5116861;27;20058;-73
2023/09/06 08:02:54;;;;;;;4.72;3.42;;;29.80;55.80;;;;;;5101132;27;20116;-73
2023/09/06 08:05:20;;;;;;;5.63;3.25;;;29.20;59.40;;;;;;5134068;27;20086;-73
2023/09/06 08:07:46;;;;;;;5.32;2.80;;;28.70;62.90;;;;;;5134141;27;20083;-74
2023/09/06 08:10:13;;;;;;;5.35;3.00;;;28.30;66.60;;;;;;5134972;27;20160;-73
2023/09/06 08:12:39;;;;;;;5.63;3.22;;;28.10;71.30;;;;;;5117205;27;20050;-73
2023/09/06 08:15:11;;;;;;;4.60;3.20;;;27.80;74.00;;;;;;5117647;27;20062;-73
2023/09/06 08:17:37;;;;;;;5.82;3.55;;;27.60;78.00;;;;;;5133803;27;20115;-74
2023/09/06 08:20:04;;;;;;;6.80;2.95;;;27.50;81.40;;;;;;5083185;27;20546;-73
2023/09/06 08:22:30;;;;;;;5.25;2.80;;;27.40;84.70;;;;;;5116613;27;20060;-74
2023/09/06 08:24:56;;;;;;;6.78;3.47;;;27.20;86.80;;;;;;5116715;27;20484;-74
2023/09/06 08:27:22;;;;;;;5.15;3.35;;;27.00;90.30;;;;;;5116235;27;20496;-74
2023/09/06 08:29:48;;;;;;;6.00;3.28;;;27.00;90.90;;;;;;5099320;27;20059;-73
2023/09/06 08:32:14;;;;;;;5.85;2.75;;;26.90;91.50;;;;;;5116501;27;20494;-75
2023/09/06 08:34:43;;;;;;;6.32;2.88;;;26.90;92.80;;;;;;5117078;27;20039;-74
2023/09/06 08:37:08;;;;;;;4.88;2.83;;;26.80;93.20;;;;;;5116331;27;20070;-72
2023/09/06 08:39:34;;;;;;;4.53;2.85;;;26.80;93.00;;;;;;5133603;27;20062;-72
2023/09/06 08:42:03;;;;;;;7.43;3.40;;;26.80;93.60;;;;;;5131945;27;20051;-72
2023/09/06 08:44:32;;;;;;;4.35;2.72;;;26.50;94.70;;;;;;5132936;27;20043;-72
2023/09/06 08:47:01;;;;;;;5.13;2.70;;;26.40;95.40;;;;;;5115905;27;20103;-73
2023/09/06 08:49:27;;;;;;;5.10;3.00;;;26.20;96.50;;;;;;5133922;27;20120;-71
2023/09/06 08:51:55;;;;;;;6.93;3.00;;;26.20;97.00;;;;;;5134424;27;20054;-76
2023/09/06 08:54:23;;;;;;;6.45;3.22;;;26.20;97.60;;;;;;5133803;27;20532;-73
2023/09/06 08:56:53;;;;;;;5.57;2.90;;;26.10;97.70;;;;;;5133223;27;20054;-74
2023/09/06 08:59:22;;;;;;;4.88;2.90;;;26.10;98.00;;;;;;5132735;27;20525;-74
2023/09/06 09:01:48;;;;;;;7.05;3.42;;;26.00;99.00;;;;;;5116107;27;20093;-73
2023/09/06 09:04:13;;;;;;;6.22;2.97;;;25.90;98.80;;;;;;5132714;27;20080;-76
2023/09/06 09:06:43;;;;;;;5.03;3.08;;;25.90;99.00;;;;;;5133522;27;20051;-74
2023/09/06 09:09:19;;;;;;;5.95;2.85;;;25.90;99.80;;;;;;5116179;27;20051;-73
2023/09/06 09:11:49;;;;;;;7.63;3.33;;;26.00;99.90;;;;;;5133287;27;20066;-74
2023/09/06 09:14:22;;;;;;;5.67;3.10;;;25.90;99.50;;;;;;5132751;27;20086;-74
2023/09/06 09:16:56;;;;;;;6.78;2.80;;;25.90;99.90;;;;;;5132983;27;20073;-74
2023/09/06 09:19:22;;;;;;;9.70;3.50;;;25.90;99.90;;;;;;5133826;27;20051;-74
2023/09/06 09:21:50;;;;;;;6.07;3.23;;;25.80;99.90;;;;;;5133011;28;20312;-74
2023/09/06 09:24:28;;;;;;;7.60;3.60;;;25.80;99.90;;;;;;5115709;28;20050;-76
2023/09/06 09:26:56;;;;;;;5.63;3.10;;;25.80;99.90;;;;;;5116058;28;20051;-74
2023/09/06 09:29:22;;;;;;;6.07;2.67;;;25.80;99.90;;;;;;5132734;28;20051;-74
2023/09/06 09:31:48;;;;;;;5.30;2.97;;;25.80;99.90;;;;;;5133709;27;20035;-71
2023/09/06 09:34:14;;;;;;;7.70;2.70;;;25.90;99.90;;;;;;5132547;28;20584;-69
2023/09/06 09:36:40;;;;;;;5.40;2.47;;;25.90;99.90;;;;;;5132350;27;20043;-73
2023/09/06 09:39:07;;;;;;;5.00;2.73;;;25.90;99.90;;;;;;5118527;27;20466;-74
2023/09/06 09:41:32;;;;;;;5.40;2.93;;;26.00;99.90;;;;;;5135532;27;20390;-73
2023/09/06 09:44:15;;;;;;;5.63;2.60;;;25.90;99.90;;;;;;5135847;27;20046;-73
2023/09/06 09:46:44;;;;;;;4.97;2.97;;;26.00;99.90;;;;;;5135968;27;20053;-73
2023/09/06 09:49:12;;;;;;;5.70;2.97;;;26.00;99.90;;;;;;5154475;27;20046;-73
2023/09/06 09:51:39;;;;;;;5.97;2.67;;;26.10;99.90;;;;;;5135523;27;20035;-73
2023/09/06 09:54:06;;;;;;;9.20;2.53;;;26.10;99.90;;;;;;5136354;27;20133;-68
2023/09/06 09:56:41;;;;;;;4.90;2.50;;;26.10;99.90;;;;;;5136006;27;20038;-68
2023/09/06 09:59:08;;;;;;;;;;;26.20;99.90;;;;;;5136736;27;20401;-68
2023/09/06 10:01:34;;;;;;;5.80;2.83;;;26.20;99.90;;;;;;5154261;27;19918;-68
2023/09/06 10:04:05;;;;;;;4.20;2.63;;;26.20;99.90;;;;;;5154089;27;20047;-68
2023/09/06 10:06:32;;;;;;;4.57;2.50;;;26.20;99.90;;;;;;5153955;27;20085;-73
2023/09/06 10:09:00;;;;;;;5.30;2.90;;;26.20;99.90;;;;;;5153820;27;20122;-73
2023/09/06 10:11:29;;;;;;;6.03;2.67;;;26.20;99.90;;;;;;5135310;27;20046;-74
2023/09/06 10:13:55;;;;;;;7.77;3.10;;;26.20;99.90;;;;;;5135292;27;20397;-73
2023/09/06 10:16:22;;;;;;;5.83;2.83;;;26.30;99.90;;;;;;5135818;27;20043;-76
2023/09/06 10:18:48;;;;;;;5.87;2.87;;;26.30;99.90;;;;;;5120060;27;20384;-73
2023/09/06 10:21:15;;;;;;;6.57;2.50;;;26.30;99.90;;;;;;5139274;27;20043;-73
2023/09/06 10:23:42;;;;;;;4.73;3.00;;;26.30;99.90;;;;;;5157773;27;20125;-73
2023/09/06 10:26:08;;;;;;;4.57;2.50;;;26.30;99.90;;;;;;5122453;27;20134;-73
2023/09/06 10:28:34;;;;;;;4.77;2.60;;;26.30;99.90;;;;;;5139294;27;20047;-78
2023/09/06 10:31:10;;;;;;;6.27;2.57;;;26.40;99.90;;;;;;5139722;27;20130;-72
2023/09/06 10:33:35;;;;;;;4.43;2.33;;;26.50;99.90;;;;;;5139406;27;20054;-72
2023/09/06 10:36:27;;;;;;;4.60;2.60;;;26.50;99.80;;;;;;5139663;27;20039;-72
2023/09/06 10:38:55;;;;;;;4.73;2.30;;;26.50;99.10;;;;;;5130554;27;20047;-73
2023/09/06 10:41:22;;;;;;;6.60;2.70;;;26.50;99.10;;;;;;5135766;27;20192;-72
2023/09/06 10:44:03;;;;;;;5.73;2.47;;;26.60;98.60;;;;;;5135652;27;20129;-72
2023/09/06 10:46:30;;;;;;;5.90;2.77;;;26.50;99.10;;;;;;5136720;27;20079;-72
2023/09/06 10:49:16;;;;;;;7.03;2.20;;;26.60;98.70;;;;;;5118683;27;20051;-72
2023/09/06 10:52:04;;;;;;;4.70;2.60;;;26.60;99.50;;;;;;5136797;27;20131;-72
2023/09/06 10:54:34;;;;;;;4.23;2.23;;;26.60;99.90;;;;;;5135551;27;20043;-73
2023/09/06 10:57:05;;;;;;;5.20;2.37;;;26.70;99.50;;;;;;5135892;27;20525;-73
2023/09/06 10:59:33;;;;;;;4.77;2.53;;;26.80;96.70;;;;;;5135356;27;20383;-72
2023/09/06 11:02:15;;;;;;;8.03;2.80;;;26.80;97.40;;;;;;5135663;27;20047;-72
2023/09/06 11:04:41;;;;;;;4.90;2.37;;;26.80;98.00;;;;;;5135357;27;20495;-72
2023/09/06 11:07:11;;;;;;;6.27;2.67;;;26.80;97.80;;;;;;5101549;27;20043;-68
2023/09/06 11:09:44;;;;;;;4.63;2.27;;;26.80;98.30;;;;;;5135905;27;20487;-69
2023/09/06 11:12:12;;;;;;;4.82;2.50;;;26.90;99.00;;;;;;5135437;27;20130;-69
2023/09/06 11:14:38;;;;;;;10.03;2.37;;;26.90;98.60;;;;;;5136100;27;20043;-71
2023/09/06 11:17:04;;;;;;;5.77;2.50;;;27.00;98.80;;;;;;5135053;27;20040;-72
2023/09/06 11:19:30;;;;;;;4.40;2.33;;;27.00;98.60;;;;;;5135651;27;20061;-76
2023/09/06 11:22:07;;;;;;;5.63;2.57;;;27.00;98.60;;;;;;5130695;27;20047;-74
2023/09/06 11:24:35;;;;;;;5.00;2.20;;;27.00;98.70;;;;;;5135043;27;20051;-76
2023/09/06 11:27:13;;;;;;;4.27;2.30;;;27.00;99.10;;;;;;5132942;27;20043;-75
2023/09/06 11:29:39;;;;;;;4.43;2.37;;;27.00;99.30;;;;;;5132664;27;20063;-75
2023/09/06 11:32:09;;;;;;;3.53;2.10;;;27.00;99.70;;;;;;5134049;27;20046;-75
2023/09/06 11:34:45;;;;;;;6.20;2.40;;;27.10;97.50;;;;;;5091409;27;20051;-76
2023/09/06 11:37:16;;;;;;;3.40;2.10;;;27.10;97.30;;;;;;5135732;27;20058;-77
2023/09/06 11:39:44;;;;;;;3.87;2.40;;;27.20;96.10;;;;;;5135104;27;20058;-75
2023/09/06 11:42:14;;;;;;;4.60;2.10;;;27.20;95.80;;;;;;5137310;27;20395;-74
2023/09/06 11:44:47;;;;;;;4.13;2.23;;;27.20;95.20;;;;;;5119682;27;20110;-75
2023/09/06 11:47:18;;;;;;;5.70;2.03;;;27.30;91.10;;;;;;5131510;27;20039;-75
2023/09/06 11:49:49;;;;;;;4.57;2.23;;;27.40;92.00;;;;;;5135244;27;20045;-75
2023/09/06 11:52:18;;;;;;;3.17;2.03;;;27.40;91.60;;;;;;5154845;27;20108;-75
2023/09/06 11:54:50;;;;;;;4.83;1.80;;;27.40;90.70;;;;;;5119255;27;20145;-77
2023/09/06 11:57:26;;;;;;;5.23;1.90;;;27.40;89.40;;;;;;5136120;27;20050;-81
2023/09/06 11:59:58;;;;;;;3.47;2.03;;;27.50;85.80;;;;;;5135192;27;20073;-75
2023/09/06 12:02:30;;;;;;;3.93;1.90;;;27.40;86.70;;;;;;5136368;27;20371;-73
2023/09/06 12:05:01;;;;;;;3.90;2.00;;;27.50;87.90;;;;;;5134644;27;20482;-74
2023/09/06 12:07:33;;;;;;;2.87;1.60;;;27.50;84.40;;;;;;5115668;27;20066;-73
2023/09/06 12:10:04;;;;;;;4.87;2.50;;;27.60;81.20;;;;;;5116271;27;20050;-74
2023/09/06 12:12:40;;;;;;;3.50;1.80;;;27.60;78.20;;;;;;5136706;27;20050;-73
2023/09/06 12:15:14;;;;;;;4.67;1.70;;;27.60;75.60;;;;;;5119528;27;20082;-74
2023/09/06 12:17:45;;;;;;;3.22;1.88;;;27.70;70.30;;;;;;5119481;27;20038;-75
2023/09/06 12:20:25;;;;;;;4.63;1.90;;;27.70;73.60;;;;;;5155698;27;20066;-73
2023/09/06 12:22:52;;;;;;;4.67;2.07;;;27.60;72.90;;;;;;5136851;27;20066;-74
2023/09/06 12:25:19;;;;;;;3.43;1.80;;;27.70;74.30;;;;;;5120152;27;20129;-72
2023/09/06 12:27:48;;;;;;;3.90;1.90;;;27.70;74.30;;;;;;5136883;27;20443;-73
2023/09/06 12:30:18;;;;;;;5.00;2.10;;;27.70;76.40;;;;;;5137578;27;20038;-72
2023/09/06 12:32:45;;;;;;;7.00;2.40;;;27.80;75.30;;;;;;5137044;27;20536;-73
2023/09/06 12:35:11;;;;;;;3.27;1.97;;;27.80;78.00;;;;;;5137136;27;20534;-72
2023/09/06 12:37:38;;;;;;;2.90;1.63;;;27.90;78.10;;;;;;5136542;27;20520;-73
2023/09/06 12:40:09;;;;;;;3.47;1.87;;;27.90;76.90;;;;;;5119696;27;20055;-73
2023/09/06 12:42:46;;;;;;;5.07;1.93;;;28.00;74.10;;;;;;5136848;27;20470;-73
2023/09/06 12:45:25;;;;;;;3.83;1.70;;;28.00;71.90;;;;;;5120082;27;20050;-73
2023/09/06 12:47:51;;;;;;;4.07;2.07;;;27.90;72.10;;;;;;5136820;27;20100;-73
2023/09/06 12:50:17;;;;;;;3.73;2.00;;;28.00;72.00;;;;;;5119544;27;20070;-73
2023/09/06 12:52:42;;;;;;;4.00;1.73;;;28.00;70.80;;;;;;5136133;27;20134;-73